West Endicott, New York
Current Conditions -  °F | °C
As of 3:53 AM on Saturday 25 Oct 2014 (Local Time) from KBGM Reporting Station
Clear Clear  
Wind Chill: 36°   Ceiling: Unl
Heat Index: 40°   Visibility: 10mi
Dew Point: 32°   Wind: 6mph
Humidity: 73%   Direction: 230°SW
Pressure: 29.89"   Gusts: NA
Location:  42.1332°N, 76.0798°W
Report Text: KBGM 250753Z AUTO 23005KT 10SM CLR 04/00 A2989 RMK AO2 SLP125 T00440000
Loading
Personal Weather Stations






























Interactive Weather Map
Tropical Storm Tracking
New forecast layout! Learn more

10-Day Weather Forecast

Advertisements
Track Severe Weather on mobile